sensor_id;sensor_type;location;lat;lon;timestamp;pressure;altitude;pressure_sealevel;temperature;humidity
59531;BME280;45349;48.692;8.186;2023-02-10T00:02:15;100563.56;;;-3.96;100.00
59531;BME280;45349;48.692;8.186;2023-02-10T00:04:41;100562.72;;;-3.98;100.00
59531;BME280;45349;48.692;8.186;2023-02-10T00:07:09;100560.06;;;-3.86;100.00
59531;BME280;45349;48.692;8.186;2023-02-10T00:09:36;100557.59;;;-3.98;100.00
59531;BME280;45349;48.692;8.186;2023-02-10T00:12:02;100559.31;;;-3.98;100.00
59531;BME280;45349;48.692;8.186;2023-02-10T00:14:30;100558.44;;;-3.96;100.00
59531;BME280;45349;48.692;8.186;2023-02-10T00:16:57;100564.38;;;-3.91;100.00
59531;BME280;45349;48.692;8.186;2023-02-10T00:19:25;100563.56;;;-3.96;100.00
59531;BME280;45349;48.692;8.186;2023-02-10T00:21:52;100566.13;;;-4.02;100.00
59531;BME280;45349;48.692;8.186;2023-02-10T00:24:21;100564.41;;;-3.97;100.00
59531;BME280;45349;48.692;8.186;2023-02-10T00:26:48;100564.41;;;-3.97;100.00
59531;BME280;45349;48.692;8.186;2023-02-10T00:29:15;100561.00;;;-4.01;100.00
59531;BME280;45349;48.692;8.186;2023-02-10T00:31:42;100564.41;;;-3.98;100.00
59531;BME280;45349;48.692;8.186;2023-02-10T00:34:12;100563.59;;;-4.07;100.00
59531;BME280;45349;48.692;8.186;2023-02-10T00:36:39;100566.13;;;-4.04;100.00
59531;BME280;45349;48.692;8.186;2023-02-10T00:39:06;100566.94;;;-3.98;100.00
59531;BME280;45349;48.692;8.186;2023-02-10T00:41:34;100564.44;;;-4.03;100.00
59531;BME280;45349;48.692;8.186;2023-02-10T00:44:03;100562.75;;;-4.09;100.00
59531;BME280;45349;48.692;8.186;2023-02-10T00:46:29;100561.84;;;-3.94;100.00
59531;BME280;45349;48.692;8.186;2023-02-10T00:48:56;100563.53;;;-3.97;100.00
59531;BME280;45349;48.692;8.186;2023-02-10T00:51:23;100560.19;;;-4.01;100.00
59531;BME280;45349;48.692;8.186;2023-02-10T00:53:49;100560.19;;;-4.06;100.00
59531;BME280;45349;48.692;8.186;2023-02-10T00:56:18;100561.94;;;-4.12;100.00
59531;BME280;45349;48.692;8.186;2023-02-10T00:58:47;100565.34;;;-4.15;100.00
59531;BME280;45349;48.692;8.186;2023-02-10T01:01:14;100565.38;;;-4.18;100.00
59531;BME280;45349;48.692;8.186;2023-02-10T01:03:41;100572.19;;;-4.16;100.00
59531;BME280;45349;48.692;8.186;2023-02-10T01:06:08;100570.47;;;-4.17;100.00
59531;BME280;45349;48.692;8.186;2023-02-10T01:08:35;100581.53;;;-4.19;100.00
59531;BME280;45349;48.692;8.186;2023-02-10T01:11:04;100573.03;;;-4.18;100.00
59531;BME280;45349;48.692;8.186;2023-02-10T01:13:31;100576.47;;;-4.27;100.00
59531;BME280;45349;48.692;8.186;2023-02-10T01:16:03;100581.59;;;-4.27;100.00
59531;BME280;45349;48.692;8.186;2023-02-10T01:18:30;100585.00;;;-4.28;100.00
59531;BME280;45349;48.692;8.186;2023-02-10T01:20:56;100585.81;;;-4.20;100.00
59531;BME280;45349;48.692;8.186;2023-02-10T01:23:23;100584.94;;;-4.19;99.71
59531;BME280;45349;48.692;8.186;2023-02-10T01:25:49;100582.38;;;-4.19;99.67
59531;BME280;45349;48.692;8.186;2023-02-10T01:28:16;100583.25;;;-4.21;98.97
59531;BME280;45349;48.692;8.186;2023-02-10T01:30:44;100589.97;;;-4.06;98.31
59531;BME280;45349;48.692;8.186;2023-02-10T01:33:13;100593.38;;;-4.04;97.68
59531;BME280;45349;48.692;8.186;2023-02-10T01:35:39;100598.47;;;-4.09;97.96
59531;BME280;45349;48.692;8.186;2023-02-10T01:38:06;100607.81;;;-4.03;96.83
59531;BME280;45349;48.692;8.186;2023-02-10T01:40:33;100615.50;;;-4.09;97.34
59531;BME280;45349;48.692;8.186;2023-02-10T01:42:59;100617.22;;;-4.15;97.31
59531;BME280;45349;48.692;8.186;2023-02-10T01:45:28;100620.63;;;-4.20;97.65
59531;BME280;45349;48.692;8.186;2023-02-10T01:47:57;100613.00;;;-4.22;97.25
59531;BME280;45349;48.692;8.186;2023-02-10T01:50:29;100614.75;;;-4.25;98.01
59531;BME280;45349;48.692;8.186;2023-02-10T01:52:58;100610.50;;;-4.26;98.56
59531;BME280;45349;48.692;8.186;2023-02-10T01:55:28;100621.44;;;-4.09;97.18
59531;BME280;45349;48.692;8.186;2023-02-10T01:57:59;100613.84;;;-4.17;97.38
59531;BME280;45349;48.692;8.186;2023-02-10T02:00:27;100612.94;;;-4.11;96.34
59531;BME280;45349;48.692;8.186;2023-02-10T02:02:56;100607.00;;;-4.11;96.33
59531;BME280;45349;48.692;8.186;2023-02-10T02:05:33;100615.53;;;-4.17;95.86
59531;BME280;45349;48.692;8.186;2023-02-10T02:08:03;100622.31;;;-4.15;95.06
59531;BME280;45349;48.692;8.186;2023-02-10T02:13:34;100627.47;;;-4.21;96.00
59531;BME280;45349;48.692;8.186;2023-02-10T02:16:09;100626.59;;;-4.17;96.31
59531;BME280;45349;48.692;8.186;2023-02-10T02:18:47;100624.84;;;-4.13;95.46
59531;BME280;45349;48.692;8.186;2023-02-10T02:21:35;100622.34;;;-4.18;95.07
59531;BME280;45349;48.692;8.186;2023-02-10T02:24:21;100626.63;;;-4.24;96.03
59531;BME280;45349;48.692;8.186;2023-02-10T02:33:40;100636.78;;;-4.17;95.42
59531;BME280;45349;48.692;8.186;2023-02-10T02:36:12;100623.25;;;-4.26;95.64
59531;BME280;45349;48.692;8.186;2023-02-10T02:38:40;100624.09;;;-4.32;96.45
59531;BME280;45349;48.692;8.186;2023-02-10T02:41:09;100627.50;;;-4.25;97.16
59531;BME280;45349;48.692;8.186;2023-02-10T02:43:36;100626.59;;;-4.20;95.74
59531;BME280;45349;48.692;8.186;2023-02-10T02:46:09;100615.63;;;-4.36;95.90
59531;BME280;45349;48.692;8.186;2023-02-10T02:48:48;100616.53;;;-4.43;96.59
59531;BME280;45349;48.692;8.186;2023-02-10T02:51:29;100617.34;;;-4.42;97.24
59531;BME280;45349;48.692;8.186;2023-02-10T02:54:03;100613.91;;;-4.35;97.18
59531;BME280;45349;48.692;8.186;2023-02-10T02:56:38;100619.88;;;-4.33;96.44
59531;BME280;45349;48.692;8.186;2023-02-10T02:59:13;100619.03;;;-4.31;96.24
59531;BME280;45349;48.692;8.186;2023-02-10T03:01:44;100619.03;;;-4.41;95.95
59531;BME280;45349;48.692;8.186;2023-02-10T03:04:16;100618.22;;;-4.45;96.28
59531;BME280;45349;48.692;8.186;2023-02-10T03:06:43;100610.53;;;-4.40;96.98
59531;BME280;45349;48.692;8.186;2023-02-10T03:09:10;100616.50;;;-4.40;95.58
59531;BME280;45349;48.692;8.186;2023-02-10T03:11:37;100616.50;;;-4.40;96.79
59531;BME280;45349;48.692;8.186;2023-02-10T03:14:04;100616.50;;;-4.40;97.79
59531;BME280;45349;48.692;8.186;2023-02-10T03:16:30;100615.63;;;-4.34;98.51
59531;BME280;45349;48.692;8.186;2023-02-10T03:18:57;100625.81;;;-4.31;97.45
59531;BME280;45349;48.692;8.186;2023-02-10T03:21:25;100624.13;;;-4.38;97.67
59531;BME280;45349;48.692;8.186;2023-02-10T03:23:52;100625.88;;;-4.48;98.46
59531;BME280;45349;48.692;8.186;2023-02-10T03:26:18;100630.13;;;-4.49;98.63
59531;BME280;45349;48.692;8.186;2023-02-10T03:28:45;100629.25;;;-4.48;98.95
59531;BME280;45349;48.692;8.186;2023-02-10T03:31:12;100648.00;;;-4.53;99.33
59531;BME280;45349;48.692;8.186;2023-02-10T03:33:38;100647.16;;;-4.55;99.51
59531;BME280;45349;48.692;8.186;2023-02-10T03:36:05;100643.72;;;-4.48;100.00
59531;BME280;45349;48.692;8.186;2023-02-10T03:38:33;100641.13;;;-4.37;99.11
59531;BME280;45349;48.692;8.186;2023-02-10T03:41:00;100640.31;;;-4.44;99.24
59531;BME280;45349;48.692;8.186;2023-02-10T03:43:26;100647.13;;;-4.49;99.53
59531;BME280;45349;48.692;8.186;2023-02-10T03:45:53;100646.28;;;-4.54;99.67
59531;BME280;45349;48.692;8.186;2023-02-10T03:48:19;100647.16;;;-4.58;99.38
59531;BME280;45349;48.692;8.186;2023-02-10T03:50:47;100652.25;;;-4.60;100.00
59531;BME280;45349;48.692;8.186;2023-02-10T03:53:14;100653.97;;;-4.64;99.89
59531;BME280;45349;48.692;8.186;2023-02-10T03:55:42;100657.38;;;-4.74;100.00
59531;BME280;45349;48.692;8.186;2023-02-10T03:58:08;100659.91;;;-4.72;100.00
59531;BME280;45349;48.692;8.186;2023-02-10T04:04:03;100666.72;;;-4.71;100.00
59531;BME280;45349;48.692;8.186;2023-02-10T04:06:30;100665.03;;;-4.68;100.00
59531;BME280;45349;48.692;8.186;2023-02-10T04:08:56;100669.25;;;-4.64;100.00
59531;BME280;45349;48.692;8.186;2023-02-10T04:11:24;100668.41;;;-4.70;100.00
59531;BME280;45349;48.692;8.186;2023-02-10T04:13:51;100669.28;;;-4.73;100.00
59531;BME280;45349;48.692;8.186;2023-02-10T04:16:17;100670.97;;;-4.74;100.00
59531;BME280;45349;48.692;8.186;2023-02-10T04:18:45;100671.84;;;-4.84;100.00
59531;BME280;45349;48.692;8.186;2023-02-10T04:21:12;100676.09;;;-4.81;100.00
59531;BME280;45349;48.692;8.186;2023-02-10T04:23:38;100681.19;;;-4.84;100.00
59531;BME280;45349;48.692;8.186;2023-02-10T04:26:05;100677.78;;;-4.71;100.00
59531;BME280;45349;48.692;8.186;2023-02-10T04:28:33;100673.53;;;-4.72;100.00
59531;BME280;45349;48.692;8.186;2023-02-10T04:33:29;100669.28;;;-4.76;100.00
59531;BME280;45349;48.692;8.186;2023-02-10T04:35:55;100662.47;;;-4.72;100.00
59531;BME280;45349;48.692;8.186;2023-02-10T04:38:23;100665.88;;;-4.74;100.00
59531;BME280;45349;48.692;8.186;2023-02-10T04:40:50;100667.59;;;-4.74;100.00
59531;BME280;45349;48.692;8.186;2023-02-10T04:43:16;100667.59;;;-4.79;100.00
59531;BME280;45349;48.692;8.186;2023-02-10T04:45:45;100660.78;;;-4.72;100.00
59531;BME280;45349;48.692;8.186;2023-02-10T04:48:11;100662.47;;;-4.72;100.00
59531;BME280;45349;48.692;8.186;2023-02-10T04:50:39;100670.09;;;-4.66;100.00
59531;BME280;45349;48.692;8.186;2023-02-10T04:53:06;100675.22;;;-4.76;100.00
59531;BME280;45349;48.692;8.186;2023-02-10T04:55:34;100673.50;;;-4.67;100.00
59531;BME280;45349;48.692;8.186;2023-02-10T04:58:00;100670.97;;;-4.78;100.00
59531;BME280;45349;48.692;8.186;2023-02-10T05:00:27;100666.72;;;-4.71;100.00
59531;BME280;45349;48.692;8.186;2023-02-10T05:02:56;100665.84;;;-4.70;100.00
59531;BME280;45349;48.692;8.186;2023-02-10T05:05:22;100666.69;;;-4.62;100.00
59531;BME280;45349;48.692;8.186;2023-02-10T05:07:50;100670.97;;;-4.70;100.00
59531;BME280;45349;48.692;8.186;2023-02-10T05:10:17;100671.84;;;-4.81;100.00
59531;BME280;45349;48.692;8.186;2023-02-10T05:12:44;100667.63;;;-4.85;100.00
59531;BME280;45349;48.692;8.186;2023-02-10T05:15:10;100666.72;;;-4.71;100.00
59531;BME280;45349;48.692;8.186;2023-02-10T05:17:38;100670.13;;;-4.71;100.00
59531;BME280;45349;48.692;8.186;2023-02-10T05:20:07;100666.72;;;-4.75;100.00
59531;BME280;45349;48.692;8.186;2023-02-10T05:22:34;100663.34;;;-4.81;100.00
59531;BME280;45349;48.692;8.186;2023-02-10T05:25:01;100669.31;;;-4.90;100.00
59531;BME280;45349;48.692;8.186;2023-02-10T05:27:27;100675.25;;;-4.91;100.00
59531;BME280;45349;48.692;8.186;2023-02-10T05:29:54;100684.56;;;-4.75;100.00
59531;BME280;45349;48.692;8.186;2023-02-10T05:32:21;100686.28;;;-4.78;100.00
59531;BME280;45349;48.692;8.186;2023-02-10T05:34:47;100685.44;;;-4.82;100.00
59531;BME280;45349;48.692;8.186;2023-02-10T05:37:15;100693.94;;;-4.84;100.00
59531;BME280;45349;48.692;8.186;2023-02-10T05:39:41;100696.47;;;-4.91;100.00
59531;BME280;45349;48.692;8.186;2023-02-10T05:42:08;100699.88;;;-4.98;100.00
59531;BME280;45349;48.692;8.186;2023-02-10T05:44:35;100699.88;;;-4.95;100.00
59531;BME280;45349;48.692;8.186;2023-02-10T05:47:01;100702.44;;;-4.78;100.00
59531;BME280;45349;48.692;8.186;2023-02-10T05:49:28;100704.97;;;-4.82;100.00
59531;BME280;45349;48.692;8.186;2023-02-10T05:51:55;100713.47;;;-4.90;100.00
59531;BME280;45349;48.692;8.186;2023-02-10T05:54:23;100721.94;;;-4.91;100.00
59531;BME280;45349;48.692;8.186;2023-02-10T05:56:49;100720.25;;;-4.79;100.00
59531;BME280;45349;48.692;8.186;2023-02-10T05:59:17;100721.13;;;-4.85;100.00
59531;BME280;45349;48.692;8.186;2023-02-10T06:01:44;100724.47;;;-4.66;100.00
59531;BME280;45349;48.692;8.186;2023-02-10T06:04:10;100729.59;;;-4.75;100.00
59531;BME280;45349;48.692;8.186;2023-02-10T06:06:37;100730.44;;;-4.78;100.00
59531;BME280;45349;48.692;8.186;2023-02-10T06:09:04;100733.81;;;-4.76;100.00
59531;BME280;45349;48.692;8.186;2023-02-10T06:11:32;100738.09;;;-4.78;100.00
59531;BME280;45349;48.692;8.186;2023-02-10T06:13:59;100743.16;;;-4.68;100.00
59531;BME280;45349;48.692;8.186;2023-02-10T06:16:26;100744.03;;;-4.74;100.00
59531;BME280;45349;48.692;8.186;2023-02-10T06:18:52;100744.88;;;-4.84;100.00
59531;BME280;45349;48.692;8.186;2023-02-10T06:21:20;100751.66;;;-4.86;100.00
59531;BME280;45349;48.692;8.186;2023-02-10T06:23:48;100756.78;;;-4.82;100.00
59531;BME280;45349;48.692;8.186;2023-02-10T06:26:14;100763.53;;;-4.71;100.00
59531;BME280;45349;48.692;8.186;2023-02-10T06:28:42;100763.56;;;-4.61;100.00
59531;BME280;45349;48.692;8.186;2023-02-10T06:31:09;100761.84;;;-4.63;100.00
59531;BME280;45349;48.692;8.186;2023-02-10T06:33:35;100766.09;;;-4.64;100.00
59531;BME280;45349;48.692;8.186;2023-02-10T06:36:03;100763.53;;;-4.62;100.00
59531;BME280;45349;48.692;8.186;2023-02-10T06:38:31;100765.25;;;-4.64;100.00
59531;BME280;45349;48.692;8.186;2023-02-10T06:40:58;100767.78;;;-4.64;100.00
59531;BME280;45349;48.692;8.186;2023-02-10T06:43:24;100775.44;;;-4.67;100.00
59531;BME280;45349;48.692;8.186;2023-02-10T06:45:53;100773.75;;;-4.75;100.00
59531;BME280;45349;48.692;8.186;2023-02-10T06:48:20;100772.06;;;-4.79;100.00
59531;BME280;45349;48.692;8.186;2023-02-10T06:50:47;100778.00;;;-4.78;100.00
59531;BME280;45349;48.692;8.186;2023-02-10T06:53:13;100773.78;;;-4.81;100.00
59531;BME280;45349;48.692;8.186;2023-02-10T06:55:40;100778.88;;;-4.78;100.00
59531;BME280;45349;48.692;8.186;2023-02-10T06:58:06;100782.22;;;-4.54;100.00
59531;BME280;45349;48.692;8.186;2023-02-10T07:00:33;100781.41;;;-4.61;100.00
59531;BME280;45349;48.692;8.186;2023-02-10T07:03:01;100783.09;;;-4.50;100.00
59531;BME280;45349;48.692;8.186;2023-02-10T07:05:28;100785.63;;;-4.46;100.00
59531;BME280;45349;48.692;8.186;2023-02-10T07:07:54;100784.75;;;-4.48;100.00
59531;BME280;45349;48.692;8.186;2023-02-10T07:10:24;100784.75;;;-4.48;100.00
59531;BME280;45349;48.692;8.186;2023-02-10T07:12:50;100786.47;;;-4.48;100.00
59531;BME280;45349;48.692;8.186;2023-02-10T07:15:17;100784.75;;;-4.37;100.00
59531;BME280;45349;48.692;8.186;2023-02-10T07:17:48;100781.38;;;-4.33;100.00
59531;BME280;45349;48.692;8.186;2023-02-10T07:20:17;100772.81;;;-4.24;100.00
59531;BME280;45349;48.692;8.186;2023-02-10T07:22:44;100783.03;;;-4.21;100.00
59531;BME280;45349;48.692;8.186;2023-02-10T07:25:11;100776.19;;;-4.14;100.00
59531;BME280;45349;48.692;8.186;2023-02-10T07:27:37;100776.19;;;-4.12;100.00
59531;BME280;45349;48.692;8.186;2023-02-10T07:30:04;100777.03;;;-4.15;100.00
59531;BME280;45349;48.692;8.186;2023-02-10T07:32:31;100772.78;;;-4.16;100.00
59531;BME280;45349;48.692;8.186;2023-02-10T07:34:58;100779.59;;;-4.04;100.00
59531;BME280;45349;48.692;8.186;2023-02-10T07:37:26;100774.47;;;-4.03;100.00
59531;BME280;45349;48.692;8.186;2023-02-10T07:39:52;100782.94;;;-3.97;100.00
59531;BME280;45349;48.692;8.186;2023-02-10T07:42:19;100778.69;;;-3.94;100.00
59531;BME280;45349;48.692;8.186;2023-02-10T07:45:07;100779.53;;;-3.96;100.00
59531;BME280;45349;48.692;8.186;2023-02-10T07:47:34;100777.84;;;-3.97;100.00
59531;BME280;45349;48.692;8.186;2023-02-10T07:50:01;100777.84;;;-3.96;100.00
59531;BME280;45349;48.692;8.186;2023-02-10T07:52:29;100776.97;;;-3.89;100.00
59531;BME280;45349;48.692;8.186;2023-02-10T07:54:55;100778.63;;;-3.80;100.00
59531;BME280;45349;48.692;8.186;2023-02-10T07:57:23;100776.09;;;-3.75;100.00
59531;BME280;45349;48.692;8.186;2023-02-10T07:59:50;100781.97;;;-3.70;100.00
59531;BME280;45349;48.692;8.186;2023-02-10T08:02:16;100782.81;;;-3.62;99.77
59531;BME280;45349;48.692;8.186;2023-02-10T08:04:43;100794.72;;;-3.62;99.71
59531;BME280;45349;48.692;8.186;2023-02-10T08:07:10;100794.69;;;-3.58;100.00
59531;BME280;45349;48.692;8.186;2023-02-10T08:09:38;100791.28;;;-3.53;100.00
59531;BME280;45349;48.692;8.186;2023-02-10T08:12:05;100790.41;;;-3.48;100.00
59531;BME280;45349;48.692;8.186;2023-02-10T08:14:31;100789.47;;;-3.36;99.16
59531;BME280;45349;48.692;8.186;2023-02-10T08:16:58;100787.75;;;-3.29;98.65
59531;BME280;45349;48.692;8.186;2023-02-10T08:19:25;100790.31;;;-3.29;98.66
59531;BME280;45349;48.692;8.186;2023-02-10T08:21:53;100787.69;;;-3.21;98.16
59531;BME280;45349;48.692;8.186;2023-02-10T08:24:19;100802.09;;;-3.13;97.73
59531;BME280;45349;48.692;8.186;2023-02-10T08:26:48;100802.94;;;-3.06;97.79
59531;BME280;45349;48.692;8.186;2023-02-10T08:29:14;100803.75;;;-3.02;97.49
59531;BME280;45349;48.692;8.186;2023-02-10T08:31:41;100802.88;;;-3.01;97.54
59531;BME280;45349;48.692;8.186;2023-02-10T08:34:14;100807.09;;;-2.94;97.63
59531;BME280;45349;48.692;8.186;2023-02-10T08:36:40;100803.63;;;-2.85;97.08
59531;BME280;45349;48.692;8.186;2023-02-10T08:39:08;100804.44;;;-2.78;96.67
59531;BME280;45349;48.692;8.186;2023-02-10T08:41:35;100806.94;;;-2.71;96.36
59531;BME280;45349;48.692;8.186;2023-02-10T08:44:03;100804.31;;;-2.63;95.80
59531;BME280;45349;48.692;8.186;2023-02-10T08:46:29;100808.47;;;-2.53;95.01
59531;BME280;45349;48.692;8.186;2023-02-10T08:48:56;100807.59;;;-2.50;93.55
59531;BME280;45349;48.692;8.186;2023-02-10T08:51:25;100800.66;;;-2.37;92.58
59531;BME280;45349;48.692;8.186;2023-02-10T08:53:53;100796.34;;;-2.29;92.12
59531;BME280;45349;48.692;8.186;2023-02-10T08:56:21;100803.88;;;-2.16;90.89
59531;BME280;45349;48.692;8.186;2023-02-10T08:58:50;100796.09;;;-2.05;92.08
59531;BME280;45349;48.692;8.186;2023-02-10T09:01:20;100795.13;;;-1.97;92.59
59531;BME280;45349;48.692;8.186;2023-02-10T09:03:48;100800.97;;;-1.85;91.73
59531;BME280;45349;48.692;8.186;2023-02-10T09:06:15;100800.00;;;-1.75;90.39
59531;BME280;45349;48.692;8.186;2023-02-10T09:08:42;100804.13;;;-1.63;89.88
59531;BME280;45349;48.692;8.186;2023-02-10T09:11:09;100802.25;;;-1.52;89.48
59531;BME280;45349;48.692;8.186;2023-02-10T09:13:36;100802.09;;;-1.39;89.41
59531;BME280;45349;48.692;8.186;2023-02-10T09:16:03;100808.75;;;-1.26;88.37
59531;BME280;45349;48.692;8.186;2023-02-10T09:18:31;100803.44;;;-1.13;86.78
59531;BME280;45349;48.692;8.186;2023-02-10T09:20:59;100806.72;;;-1.02;86.92
59531;BME280;45349;48.692;8.186;2023-02-10T09:23:26;100811.63;;;-0.88;85.99
59531;BME280;45349;48.692;8.186;2023-02-10T09:25:53;100809.69;;;-0.73;85.60
59531;BME280;45349;48.692;8.186;2023-02-10T09:28:19;100813.75;;;-0.60;84.36
59531;BME280;45349;48.692;8.186;2023-02-10T09:30:49;100809.19;;;-0.44;85.03
59531;BME280;45349;48.692;8.186;2023-02-10T09:33:16;100809.78;;;-0.28;86.46
59531;BME280;45349;48.692;8.186;2023-02-10T09:35:44;100814.59;;;-0.11;84.25
59531;BME280;45349;48.692;8.186;2023-02-10T09:38:12;100816.22;;;-0.05;81.56
59531;BME280;45349;48.692;8.186;2023-02-10T09:40:48;100819.44;;;0.05;81.59
59531;BME280;45349;48.692;8.186;2023-02-10T09:43:26;100811.63;;;0.11;79.39
59531;BME280;45349;48.692;8.186;2023-02-10T09:46:01;100814.84;;;0.21;79.99
59531;BME280;45349;48.692;8.186;2023-02-10T09:48:38;100819.84;;;0.28;77.90
59531;BME280;45349;48.692;8.186;2023-02-10T09:51:13;100806.81;;;0.38;77.87
59531;BME280;45349;48.692;8.186;2023-02-10T09:53:44;100806.59;;;0.49;77.64
59531;BME280;45349;48.692;8.186;2023-02-10T09:56:15;100815.09;;;0.52;77.63
59531;BME280;45349;48.692;8.186;2023-02-10T09:58:44;100819.03;;;0.67;77.19
59531;BME280;45349;48.692;8.186;2023-02-10T10:01:15;100822.38;;;0.72;75.68
59531;BME280;45349;48.692;8.186;2023-02-10T10:03:47;100830.63;;;0.85;76.02
59531;BME280;45349;48.692;8.186;2023-02-10T10:06:21;100825.63;;;0.79;75.99
59531;BME280;45349;48.692;8.186;2023-02-10T10:08:57;100824.59;;;0.88;76.70
59531;BME280;45349;48.692;8.186;2023-02-10T10:11:32;100831.50;;;0.86;76.93
59531;BME280;45349;48.692;8.186;2023-02-10T10:14:02;100829.69;;;0.90;77.35
59531;BME280;45349;48.692;8.186;2023-02-10T10:16:44;100836.25;;;1.03;76.78
59531;BME280;45349;48.692;8.186;2023-02-10T10:19:23;100836.38;;;0.98;76.17
59531;BME280;45349;48.692;8.186;2023-02-10T10:22:05;100834.63;;;1.00;76.07
59531;BME280;45349;48.692;8.186;2023-02-10T10:24:46;100836.91;;;1.11;75.73
59531;BME280;45349;48.692;8.186;2023-02-10T10:27:24;100841.38;;;1.05;76.55
59531;BME280;45349;48.692;8.186;2023-02-10T10:29:55;100842.81;;;1.15;76.34
59531;BME280;45349;48.692;8.186;2023-02-10T10:32:35;100845.16;;;1.26;76.55
59531;BME280;45349;48.692;8.186;2023-02-10T10:35:05;100851.72;;;1.38;75.34
59531;BME280;45349;48.692;8.186;2023-02-10T10:37:40;100842.41;;;1.33;75.09
59531;BME280;45349;48.692;8.186;2023-02-10T10:40:08;100842.25;;;1.40;75.63
59531;BME280;45349;48.692;8.186;2023-02-10T10:42:40;100844.81;;;1.40;76.18
59531;BME280;45349;48.692;8.186;2023-02-10T10:45:14;100847.25;;;1.46;76.95
59531;BME280;45349;48.692;8.186;2023-02-10T10:47:45;100848.56;;;1.62;75.99
59531;BME280;45349;48.692;8.186;2023-02-10T10:50:15;100841.53;;;1.69;76.76
59531;BME280;45349;48.692;8.186;2023-02-10T10:52:45;100837.47;;;1.94;77.63
59531;BME280;45349;48.692;8.186;2023-02-10T10:55:20;100840.47;;;2.10;74.26
59531;BME280;45349;48.692;8.186;2023-02-10T10:57:49;100838.06;;;2.03;73.85
59531;BME280;45349;48.692;8.186;2023-02-10T11:00:20;100843.47;;;1.94;74.46
59531;BME280;45349;48.692;8.186;2023-02-10T11:02:52;100841.19;;;1.82;76.32
59531;BME280;45349;48.692;8.186;2023-02-10T11:05:19;100842.09;;;1.81;75.40
59531;BME280;45349;48.692;8.186;2023-02-10T11:07:49;100840.31;;;1.83;76.51
59531;BME280;45349;48.692;8.186;2023-02-10T11:10:23;100832.88;;;2.05;75.95
59531;BME280;45349;48.692;8.186;2023-02-10T11:12:50;100836.50;;;1.98;76.19
59531;BME280;45349;48.692;8.186;2023-02-10T11:15:30;100834.75;;;1.98;75.88
59531;BME280;45349;48.692;8.186;2023-02-10T11:18:00;100831.28;;;2.01;76.77
59531;BME280;45349;48.692;8.186;2023-02-10T11:20:29;100835.72;;;1.96;76.02
59531;BME280;45349;48.692;8.186;2023-02-10T11:22:59;100836.19;;;2.10;74.72
59531;BME280;45349;48.692;8.186;2023-02-10T11:25:29;100831.13;;;2.05;76.12
59531;BME280;45349;48.692;8.186;2023-02-10T11:27:57;100833.56;;;2.12;75.61
59531;BME280;45349;48.692;8.186;2023-02-10T11:30:26;100843.59;;;2.21;75.01
59531;BME280;45349;48.692;8.186;2023-02-10T11:32:54;100829.03;;;2.20;73.80
59531;BME280;45349;48.692;8.186;2023-02-10T11:35:22;100830.03;;;2.14;74.99
59531;BME280;45349;48.692;8.186;2023-02-10T11:37:52;100830.56;;;2.27;74.17
59531;BME280;45349;48.692;8.186;2023-02-10T11:40:22;100834.91;;;2.25;73.40
59531;BME280;45349;48.692;8.186;2023-02-10T11:42:51;100833.97;;;2.28;73.40
59531;BME280;45349;48.692;8.186;2023-02-10T11:45:21;100830.16;;;2.41;73.85
59531;BME280;45349;48.692;8.186;2023-02-10T11:47:59;100826.78;;;2.39;72.52
59531;BME280;45349;48.692;8.186;2023-02-10T11:50:30;100834.16;;;2.51;72.44
59531;BME280;45349;48.692;8.186;2023-02-10T11:52:57;100831.13;;;2.67;72.06
59531;BME280;45349;48.692;8.186;2023-02-10T11:55:33;100827.38;;;2.77;71.15
59531;BME280;45349;48.692;8.186;2023-02-10T11:58:18;100821.44;;;2.75;71.16
59531;BME280;45349;48.692;8.186;2023-02-10T12:01:09;100819.31;;;2.88;70.76
59531;BME280;45349;48.692;8.186;2023-02-10T12:03:52;100813.06;;;2.95;71.03
59531;BME280;45349;48.692;8.186;2023-02-10T12:06:30;100818.53;;;3.13;70.67
59531;BME280;45349;48.692;8.186;2023-02-10T12:09:02;100808.03;;;3.19;69.72
59531;BME280;45349;48.692;8.186;2023-02-10T12:11:39;100801.25;;;3.17;69.56
59531;BME280;45349;48.692;8.186;2023-02-10T12:14:25;100800.88;;;3.28;69.29
59531;BME280;45349;48.692;8.186;2023-02-10T12:17:02;100805.38;;;3.48;68.48
59531;BME280;45349;48.692;8.186;2023-02-10T12:19:36;100797.72;;;3.45;67.86
59531;BME280;45349;48.692;8.186;2023-02-10T12:22:13;100793.91;;;3.57;67.47
59531;BME280;45349;48.692;8.186;2023-02-10T12:24:57;100794.81;;;3.56;66.07
59531;BME280;45349;48.692;8.186;2023-02-10T12:27:37;100787.84;;;3.58;67.06
59531;BME280;45349;48.692;8.186;2023-02-10T12:30:14;100784.09;;;3.66;65.99
59531;BME280;45349;48.692;8.186;2023-02-10T12:32:52;100785.84;;;3.66;65.59
59531;BME280;45349;48.692;8.186;2023-02-10T12:35:29;100783.09;;;3.71;67.11
59531;BME280;45349;48.692;8.186;2023-02-10T12:38:07;100780.81;;;3.87;65.64
59531;BME280;45349;48.692;8.186;2023-02-10T12:40:49;100775.41;;;3.93;63.66
59531;BME280;45349;48.692;8.186;2023-02-10T12:43:32;100779.69;;;3.94;63.25
59531;BME280;45349;48.692;8.186;2023-02-10T12:46:10;100776.59;;;3.84;60.88
59531;BME280;45349;48.692;8.186;2023-02-10T12:48:56;100785.94;;;3.88;62.42
59531;BME280;45349;48.692;8.186;2023-02-10T12:51:34;100785.81;;;3.91;62.32
59531;BME280;45349;48.692;8.186;2023-02-10T12:54:07;100774.31;;;4.00;62.12
59531;BME280;45349;48.692;8.186;2023-02-10T12:56:40;100773.28;;;4.04;61.28
59531;BME280;45349;48.692;8.186;2023-02-10T12:59:15;100766.63;;;3.98;62.02
59531;BME280;45349;48.692;8.186;2023-02-10T13:01:46;100771.38;;;4.09;59.31
59531;BME280;45349;48.692;8.186;2023-02-10T13:04:18;100768.97;;;4.05;60.89
59531;BME280;45349;48.692;8.186;2023-02-10T13:06:50;100771.00;;;4.20;60.31
59531;BME280;45349;48.692;8.186;2023-02-10T13:09:25;100771.00;;;4.20;56.25
59531;BME280;45349;48.692;8.186;2023-02-10T13:12:05;100767.63;;;4.18;56.27
59531;BME280;45349;48.692;8.186;2023-02-10T13:14:39;100771.59;;;4.27;56.67
59531;BME280;45349;48.692;8.186;2023-02-10T13:17:08;100774.78;;;4.34;57.92